Time;durP1;ratioP1;P1;durP2;ratioP2;P2;SDS_P1;SDS_P2;PMS_P1;PMS_P2;Temp;Humidity;BMP_temperature;BMP_pressure;BME280_temperature;BME280_humidity;BME280_pressure;Samples;Min_cycle;Max_cycle;Signal;HPM_P1;HPM_P2
2021/07/23 00:00:22;;;;;;;1.50;1.00;;;18.70;94.40;;;;;;5008604;28;20468;-80
2021/07/23 00:02:48;;;;;;;1.50;0.90;;;18.60;94.40;;;;;;5009055;28;20506;-80
2021/07/23 00:05:15;;;;;;;1.50;0.90;;;18.60;94.40;;;;;;5009396;28;20472;-80
2021/07/23 00:07:42;;;;;;;1.50;0.90;;;18.60;94.40;;;;;;5006916;28;20491;-80
2021/07/23 00:10:09;;;;;;;1.50;1.10;;;18.50;94.60;;;;;;5007555;28;20496;-80
2021/07/23 00:12:37;;;;;;;1.50;0.93;;;18.50;95.00;;;;;;5008221;28;20471;-80
2021/07/23 00:15:05;;;;;;;1.50;1.00;;;18.50;94.70;;;;;;5002556;28;20461;-80
2021/07/23 00:17:32;;;;;;;1.50;0.93;;;18.40;94.80;;;;;;5009102;28;21328;-80
2021/07/23 00:19:58;;;;;;;1.50;0.90;;;18.40;94.60;;;;;;5006807;28;20463;-79
2021/07/23 00:22:25;;;;;;;1.50;0.90;;;18.40;94.70;;;;;;5009097;28;20487;-80
2021/07/23 00:24:52;;;;;;;1.50;1.00;;;18.30;95.00;;;;;;5005267;28;20473;-80
2021/07/23 00:27:19;;;;;;;1.50;1.00;;;18.30;94.80;;;;;;5005973;28;20490;-80
2021/07/23 00:29:47;;;;;;;1.50;1.00;;;18.30;95.10;;;;;;5007594;28;20474;-79
2021/07/23 00:32:14;;;;;;;1.50;1.00;;;18.30;95.10;;;;;;5009348;28;20479;-79
2021/07/23 00:34:40;;;;;;;1.50;1.00;;;18.20;94.80;;;;;;5002781;28;20460;-79
2021/07/23 00:37:07;;;;;;;1.50;1.00;;;18.20;95.40;;;;;;4998673;28;20476;-80
2021/07/23 00:39:34;;;;;;;1.50;1.00;;;18.20;95.50;;;;;;5006866;28;20465;-80
2021/07/23 00:42:01;;;;;;;1.50;1.00;;;18.10;95.20;;;;;;5007184;28;20471;-79
2021/07/23 00:44:27;;;;;;;1.50;1.00;;;18.10;95.50;;;;;;5012603;28;20472;-79
2021/07/23 00:46:56;;;;;;;1.50;1.00;;;18.10;95.60;;;;;;4989822;28;20481;-79
2021/07/23 00:49:23;;;;;;;1.50;1.00;;;18.10;95.20;;;;;;5003188;28;20465;-79
2021/07/23 00:51:51;;;;;;;1.50;0.90;;;18.00;95.80;;;;;;5001551;28;20480;-80
2021/07/23 00:54:18;;;;;;;1.50;1.00;;;18.00;95.60;;;;;;5006194;28;20467;-79
2021/07/23 00:56:45;;;;;;;1.50;0.97;;;18.00;96.00;;;;;;4997926;28;20481;-79
2021/07/23 00:59:12;;;;;;;1.50;0.93;;;18.00;95.80;;;;;;5010378;28;20469;-80
2021/07/23 01:01:39;;;;;;;1.50;0.97;;;17.90;96.00;;;;;;5004352;28;20518;-79
2021/07/23 01:04:07;;;;;;;1.50;0.90;;;17.90;96.00;;;;;;5017496;28;20619;-80
2021/07/23 01:06:35;;;;;;;1.50;0.90;;;17.90;95.80;;;;;;4998469;28;20492;-79
2021/07/23 01:09:02;;;;;;;1.50;0.90;;;17.80;95.80;;;;;;5006739;28;20627;-79
2021/07/23 01:11:28;;;;;;;1.50;1.00;;;17.80;95.90;;;;;;5002017;28;20491;-79
2021/07/23 01:13:55;;;;;;;1.53;1.00;;;17.80;95.60;;;;;;5010007;28;20471;-79
2021/07/23 01:16:23;;;;;;;1.50;0.90;;;17.80;95.90;;;;;;5002729;28;20479;-80
2021/07/23 01:18:49;;;;;;;1.50;0.90;;;17.70;95.90;;;;;;5024215;28;20460;-80
2021/07/23 01:21:18;;;;;;;1.50;1.00;;;17.70;96.00;;;;;;5000302;28;20484;-80
2021/07/23 01:23:47;;;;;;;1.50;1.00;;;17.70;96.20;;;;;;5009336;28;20457;-80
2021/07/23 01:26:14;;;;;;;1.50;0.90;;;17.70;95.90;;;;;;4996151;28;20499;-80
2021/07/23 01:28:45;;;;;;;1.50;1.00;;;17.60;96.50;;;;;;5022991;28;20464;-81
2021/07/23 01:31:12;;;;;;;1.50;1.00;;;17.60;96.30;;;;;;4996531;28;20485;-80
2021/07/23 01:33:39;;;;;;;1.50;1.00;;;17.60;96.40;;;;;;5010990;28;20461;-80
2021/07/23 01:36:06;;;;;;;1.50;1.00;;;17.50;96.50;;;;;;4998941;28;20484;-80
2021/07/23 01:38:34;;;;;;;1.50;0.90;;;17.50;96.50;;;;;;5025589;28;20471;-79
2021/07/23 01:41:02;;;;;;;1.50;0.90;;;17.40;96.40;;;;;;5000216;28;20612;-79
2021/07/23 01:43:29;;;;;;;1.50;0.90;;;17.40;96.30;;;;;;5015218;28;20456;-80
2021/07/23 01:45:57;;;;;;;1.50;0.90;;;17.40;96.60;;;;;;5002120;28;20479;-79
2021/07/23 01:48:24;;;;;;;1.50;0.90;;;17.30;96.60;;;;;;5015818;28;20882;-79
2021/07/23 01:50:51;;;;;;;1.50;0.90;;;17.30;96.70;;;;;;5002387;28;20491;-80
2021/07/23 01:53:18;;;;;;;1.50;1.00;;;17.30;96.50;;;;;;5013951;28;20464;-80
2021/07/23 01:55:45;;;;;;;1.50;1.00;;;17.30;96.60;;;;;;5005004;28;20998;-80
2021/07/23 01:58:13;;;;;;;1.60;1.10;;;17.20;96.90;;;;;;5018264;28;20480;-80
2021/07/23 02:00:40;;;;;;;1.50;1.00;;;17.20;96.50;;;;;;5007044;28;20460;-79
2021/07/23 02:03:07;;;;;;;1.50;1.00;;;17.20;96.80;;;;;;5006186;28;20483;-79
2021/07/23 02:05:33;;;;;;;1.50;1.00;;;17.10;96.90;;;;;;5012720;28;20649;-80
2021/07/23 02:08:01;;;;;;;1.50;1.00;;;17.10;96.80;;;;;;5015448;28;20484;-80
2021/07/23 02:10:28;;;;;;;1.50;0.90;;;17.10;96.90;;;;;;5008044;28;20468;-79
2021/07/23 02:12:55;;;;;;;1.50;0.93;;;17.00;97.10;;;;;;5014347;28;20487;-78
2021/07/23 02:15:24;;;;;;;1.50;1.00;;;17.00;97.20;;;;;;5012539;28;20456;-79
2021/07/23 02:17:50;;;;;;;1.50;1.00;;;17.00;97.20;;;;;;5014845;28;20484;-80
2021/07/23 02:20:17;;;;;;;1.50;1.00;;;16.90;97.40;;;;;;5012171;28;20464;-79
2021/07/23 02:22:44;;;;;;;1.50;0.90;;;16.90;97.20;;;;;;5002087;28;21020;-79
2021/07/23 02:25:11;;;;;;;1.50;1.00;;;16.90;97.20;;;;;;5008680;28;20480;-79
2021/07/23 02:27:38;;;;;;;1.50;1.00;;;16.90;97.10;;;;;;5008486;28;20484;-79
2021/07/23 02:30:05;;;;;;;1.50;1.00;;;16.80;97.00;;;;;;5005159;28;20964;-79
2021/07/23 02:32:33;;;;;;;1.50;1.00;;;16.80;97.50;;;;;;5012038;28;20487;-79
2021/07/23 02:35:00;;;;;;;1.50;1.00;;;16.80;97.60;;;;;;5007096;28;21002;-80
2021/07/23 02:37:27;;;;;;;1.50;0.90;;;16.80;97.60;;;;;;5006373;28;20488;-79
2021/07/23 02:39:53;;;;;;;1.50;1.00;;;16.80;97.20;;;;;;5012801;28;20465;-80
2021/07/23 02:42:20;;;;;;;1.50;0.90;;;16.70;97.50;;;;;;5014390;28;20484;-79
2021/07/23 02:44:47;;;;;;;1.50;1.00;;;16.70;97.40;;;;;;5011496;28;20465;-80
2021/07/23 02:47:14;;;;;;;1.50;1.00;;;16.70;97.90;;;;;;5014413;28;20479;-80
2021/07/23 02:49:42;;;;;;;1.50;1.00;;;16.60;97.90;;;;;;5011861;28;20464;-80
2021/07/23 02:52:09;;;;;;;1.50;1.00;;;16.60;97.90;;;;;;5007525;28;20488;-80
2021/07/23 02:54:35;;;;;;;1.50;1.00;;;16.60;98.00;;;;;;5010915;28;20475;-79
2021/07/23 02:57:02;;;;;;;1.50;1.00;;;16.50;98.20;;;;;;5005224;28;20511;-79
2021/07/23 02:59:29;;;;;;;1.50;1.03;;;16.50;98.20;;;;;;5004745;28;20476;-80
2021/07/23 03:01:56;;;;;;;1.50;0.90;;;16.50;98.20;;;;;;5010498;28;20727;-79
2021/07/23 03:04:22;;;;;;;1.50;1.00;;;16.50;98.10;;;;;;5022178;28;20464;-79
2021/07/23 03:06:50;;;;;;;1.50;1.00;;;16.40;98.20;;;;;;5009022;28;20495;-79
2021/07/23 03:09:17;;;;;;;1.50;1.00;;;16.40;98.20;;;;;;5015662;28;20465;-81
2021/07/23 03:11:44;;;;;;;1.50;1.00;;;16.40;98.20;;;;;;5002805;28;20477;-78
2021/07/23 03:14:10;;;;;;;1.50;0.97;;;16.30;98.20;;;;;;5014273;28;20464;-81
2021/07/23 03:16:37;;;;;;;1.50;1.00;;;16.30;98.20;;;;;;5007365;28;21034;-80
2021/07/23 03:19:04;;;;;;;1.50;1.00;;;16.30;98.20;;;;;;5018179;28;20460;-81
2021/07/23 03:21:30;;;;;;;1.50;0.90;;;16.30;98.20;;;;;;5004497;28;20490;-81
2021/07/23 03:23:59;;;;;;;1.53;1.10;;;16.30;98.20;;;;;;5019311;28;20467;-81
2021/07/23 03:26:25;;;;;;;1.50;1.00;;;16.20;98.20;;;;;;5011058;28;20490;-80
2021/07/23 03:28:52;;;;;;;1.53;1.00;;;16.20;98.20;;;;;;5021292;28;20472;-80
2021/07/23 03:31:19;;;;;;;1.50;1.00;;;16.20;98.20;;;;;;5010822;28;20514;-80
2021/07/23 03:33:45;;;;;;;1.50;0.97;;;16.20;98.20;;;;;;5025808;28;20987;-80
2021/07/23 03:36:12;;;;;;;1.57;1.10;;;16.10;98.20;;;;;;5002136;28;20480;-80
2021/07/23 03:38:39;;;;;;;1.60;1.00;;;16.10;98.20;;;;;;5016794;28;20479;-81
2021/07/23 03:41:07;;;;;;;1.50;1.00;;;16.10;98.20;;;;;;5003604;28;20491;-80
2021/07/23 03:43:34;;;;;;;1.57;1.00;;;16.10;98.20;;;;;;5022154;28;20475;-80
2021/07/23 03:46:00;;;;;;;1.50;1.10;;;16.10;98.20;;;;;;5005603;28;20479;-80
2021/07/23 03:48:27;;;;;;;1.50;0.90;;;16.00;98.20;;;;;;5018074;28;20456;-80
2021/07/23 03:50:54;;;;;;;1.50;0.90;;;16.00;98.20;;;;;;5005697;28;20991;-81
2021/07/23 03:53:21;;;;;;;1.50;1.00;;;16.00;98.20;;;;;;5026768;28;20472;-81
2021/07/23 03:55:47;;;;;;;1.50;1.00;;;16.00;98.20;;;;;;4997054;28;20460;-80
2021/07/23 03:58:15;;;;;;;1.50;0.90;;;15.90;98.20;;;;;;5021054;28;20464;-79
2021/07/23 04:00:42;;;;;;;1.50;1.00;;;15.90;98.20;;;;;;5015708;28;20463;-81
2021/07/23 04:03:09;;;;;;;1.50;1.00;;;15.90;98.20;;;;;;5015363;28;20484;-81
2021/07/23 04:05:36;;;;;;;1.50;1.00;;;15.90;98.20;;;;;;5012570;28;20475;-79
2021/07/23 04:08:02;;;;;;;1.50;0.90;;;15.90;98.20;;;;;;5005051;28;20543;-79
2021/07/23 04:10:29;;;;;;;1.50;0.90;;;15.90;98.20;;;;;;5017103;28;20456;-79
2021/07/23 04:12:56;;;;;;;1.50;1.00;;;15.90;98.20;;;;;;5015810;28;20848;-79
2021/07/23 04:15:24;;;;;;;1.50;0.90;;;15.90;98.20;;;;;;5015192;28;20464;-78
2021/07/23 04:17:51;;;;;;;1.50;0.90;;;15.90;98.20;;;;;;5012042;28;20484;-78
2021/07/23 04:20:17;;;;;;;1.50;1.00;;;15.90;98.20;;;;;;5012693;28;20457;-78
2021/07/23 04:22:44;;;;;;;1.50;1.00;;;15.90;98.20;;;;;;5003909;28;20479;-78
2021/07/23 04:25:11;;;;;;;1.50;1.00;;;15.90;98.20;;;;;;5007339;28;20507;-77
2021/07/23 04:27:38;;;;;;;1.50;1.00;;;15.90;98.20;;;;;;5007244;28;20563;-79
2021/07/23 04:30:06;;;;;;;1.50;0.90;;;15.90;98.20;;;;;;5004810;28;20605;-78
2021/07/23 04:32:34;;;;;;;1.50;1.00;;;16.00;98.20;;;;;;5012033;28;20538;-77
2021/07/23 04:35:03;;;;;;;1.53;1.00;;;16.00;98.20;;;;;;5002324;28;20460;-77
2021/07/23 04:37:30;;;;;;;1.50;1.00;;;16.00;98.20;;;;;;4997497;28;20579;-77
2021/07/23 04:39:56;;;;;;;1.53;1.10;;;16.00;98.20;;;;;;5007519;28;20460;-77
2021/07/23 04:42:23;;;;;;;1.50;1.00;;;16.00;98.20;;;;;;5000448;28;20484;-77
2021/07/23 04:44:50;;;;;;;1.50;1.00;;;16.10;98.20;;;;;;5009926;28;20471;-78
2021/07/23 04:47:17;;;;;;;1.50;1.00;;;16.10;98.20;;;;;;5010404;28;20958;-78
2021/07/23 04:50:12;;;;;;;1.50;0.90;;;16.10;98.20;;;;;;5002387;28;20468;-78
2021/07/23 04:52:40;;;;;;;1.50;1.00;;;16.20;98.20;;;;;;5001130;28;20496;-78
2021/07/23 04:55:12;;;;;;;1.50;0.93;;;16.20;98.20;;;;;;5008767;28;20465;-78
2021/07/23 04:57:43;;;;;;;1.50;0.90;;;16.20;98.20;;;;;;5014212;28;20571;-78
2021/07/23 05:02:40;;;;;;;1.50;0.90;;;16.40;98.20;;;;;;4994627;23;20477;-78
2021/07/23 05:05:12;;;;;;;1.50;1.00;;;16.50;98.20;;;;;;4991880;28;20468;-78
2021/07/23 05:07:39;;;;;;;1.50;0.90;;;16.60;98.20;;;;;;4984172;28;20515;-78
2021/07/23 05:10:07;;;;;;;1.50;1.00;;;16.70;98.20;;;;;;4979627;28;20462;-79
2021/07/23 05:12:34;;;;;;;1.50;0.90;;;16.90;98.20;;;;;;4981704;28;20477;-78
2021/07/23 05:15:02;;;;;;;1.50;0.90;;;17.00;98.20;;;;;;4979873;28;20457;-79
2021/07/23 05:17:29;;;;;;;1.50;0.90;;;17.20;98.20;;;;;;4978314;28;20527;-79
2021/07/23 05:19:56;;;;;;;1.50;1.00;;;17.40;98.20;;;;;;4980276;28;20474;-81
2021/07/23 05:22:24;;;;;;;1.50;0.93;;;17.60;98.20;;;;;;4978368;28;20481;-79
2021/07/23 05:24:51;;;;;;;1.50;1.00;;;17.70;98.20;;;;;;4978329;28;20472;-79
2021/07/23 05:27:20;;;;;;;1.50;0.90;;;17.80;98.00;;;;;;4978548;28;21039;-78
2021/07/23 05:29:46;;;;;;;1.50;0.90;;;18.00;98.20;;;;;;4985555;28;20465;-78
2021/07/23 05:32:13;;;;;;;1.50;0.90;;;18.20;97.50;;;;;;4977096;28;20495;-78
2021/07/23 05:34:40;;;;;;;1.50;1.00;;;18.30;96.90;;;;;;4978194;28;20500;-78
2021/07/23 05:37:07;;;;;;;1.50;0.90;;;18.50;96.40;;;;;;4978244;28;20568;-77
2021/07/23 05:39:38;;;;;;;1.50;1.00;;;18.60;95.90;;;;;;4979664;28;21188;-78
2021/07/23 05:42:05;;;;;;;1.57;1.00;;;18.60;95.40;;;;;;4976611;28;20479;-77
2021/07/23 05:44:32;;;;;;;1.50;0.90;;;18.70;95.30;;;;;;4983089;28;20576;-79
2021/07/23 05:46:59;;;;;;;1.50;0.93;;;18.90;95.30;;;;;;4978000;28;20481;-78
2021/07/23 05:49:26;;;;;;;1.53;0.90;;;19.00;95.00;;;;;;4984421;28;20962;-79
2021/07/23 05:51:53;;;;;;;1.53;0.90;;;19.10;94.30;;;;;;4978032;28;20480;-79
2021/07/23 05:54:20;;;;;;;1.50;0.90;;;19.10;94.10;;;;;;4987012;28;21159;-79
2021/07/23 05:56:48;;;;;;;1.50;1.00;;;19.20;94.20;;;;;;4973787;28;20480;-79
2021/07/23 05:59:15;;;;;;;1.50;0.90;;;19.30;93.70;;;;;;4985648;28;20493;-79
2021/07/23 06:01:42;;;;;;;1.50;1.00;;;19.50;93.30;;;;;;4975789;28;20595;-78
2021/07/23 06:04:09;;;;;;;1.53;1.00;;;19.60;93.10;;;;;;4988059;28;20792;-78
2021/07/23 06:06:37;;;;;;;1.50;0.93;;;19.70;92.90;;;;;;4974328;28;20493;-78
2021/07/23 06:09:04;;;;;;;1.50;0.90;;;20.00;92.60;;;;;;4989074;28;20466;-79
2021/07/23 06:11:30;;;;;;;1.50;0.97;;;20.10;92.10;;;;;;4974919;28;21022;-78
2021/07/23 06:13:58;;;;;;;1.50;0.90;;;20.40;91.80;;;;;;4990987;28;20482;-77
2021/07/23 06:16:25;;;;;;;1.50;0.90;;;20.60;90.90;;;;;;4972195;28;20489;-77
2021/07/23 06:18:52;;;;;;;1.50;0.90;;;20.80;90.20;;;;;;4981726;28;20493;-78
2021/07/23 06:21:21;;;;;;;1.50;0.90;;;21.00;90.00;;;;;;4970013;28;20469;-76
2021/07/23 06:23:48;;;;;;;1.50;0.90;;;21.10;88.90;;;;;;4986126;28;20469;-78
2021/07/23 06:26:15;;;;;;;1.50;0.90;;;21.20;89.20;;;;;;4970888;28;20485;-77
2021/07/23 06:28:42;;;;;;;1.57;0.90;;;21.30;87.90;;;;;;5009698;23;20985;-80
2021/07/23 06:31:11;;;;;;;1.53;0.90;;;21.40;87.80;;;;;;4979182;28;20464;-78
2021/07/23 06:33:38;;;;;;;1.50;0.90;;;21.50;87.80;;;;;;5016292;28;20486;-79
2021/07/23 06:36:05;;;;;;;1.50;0.90;;;21.50;87.20;;;;;;4983495;28;21182;-77
2021/07/23 06:38:31;;;;;;;1.50;0.90;;;21.50;87.00;;;;;;5009169;28;20477;-78
2021/07/23 06:40:59;;;;;;;1.50;0.90;;;21.60;86.60;;;;;;4974532;28;20469;-77
2021/07/23 06:43:25;;;;;;;1.50;0.90;;;21.70;87.10;;;;;;5018154;28;20468;-76
2021/07/23 06:45:53;;;;;;;1.70;1.10;;;21.80;87.10;;;;;;4986511;28;20491;-78
2021/07/23 06:48:21;;;;;;;1.50;0.90;;;22.00;86.50;;;;;;4996945;28;21389;-79
2021/07/23 06:50:49;;;;;;;1.50;0.90;;;22.20;86.10;;;;;;4981646;28;20468;-76
2021/07/23 06:53:16;;;;;;;1.53;0.90;;;22.30;85.80;;;;;;5011248;28;20640;-77
2021/07/23 06:55:43;;;;;;;1.50;0.90;;;22.50;85.90;;;;;;4981515;28;20470;-78
2021/07/23 06:58:10;;;;;;;1.50;0.90;;;22.60;85.30;;;;;;5008100;28;20477;-79
2021/07/23 07:00:38;;;;;;;1.50;0.90;;;22.80;84.80;;;;;;4985429;28;20475;-78
2021/07/23 07:03:07;;;;;;;1.50;0.90;;;23.00;84.20;;;;;;4999272;28;20598;-78
2021/07/23 07:05:36;;;;;;;1.50;0.90;;;23.20;83.80;;;;;;4995701;28;20492;-78
2021/07/23 07:08:03;;;;;;;1.50;0.90;;;23.40;82.40;;;;;;4978770;28;20503;-77
2021/07/23 07:10:30;;;;;;;1.60;1.20;;;23.50;82.60;;;;;;4994617;28;20974;-78
2021/07/23 07:12:57;;;;;;;1.50;0.90;;;23.60;82.50;;;;;;4994172;28;20476;-79
2021/07/23 07:15:24;;;;;;;1.50;0.90;;;23.70;83.00;;;;;;5000704;28;20465;-78
2021/07/23 07:17:56;;;;;;;1.50;0.90;;;23.80;82.40;;;;;;4995810;28;20492;-77
2021/07/23 07:20:23;;;;;;;1.50;0.90;;;23.90;81.50;;;;;;4992853;28;20858;-80
2021/07/23 07:22:51;;;;;;;1.50;0.90;;;24.10;80.60;;;;;;4988160;28;20571;-77
2021/07/23 07:25:18;;;;;;;1.50;0.90;;;24.20;81.10;;;;;;4994441;28;20909;-77
2021/07/23 07:27:45;;;;;;;1.50;0.90;;;24.20;82.10;;;;;;4983771;28;20477;-78
2021/07/23 07:30:12;;;;;;;1.50;0.90;;;24.20;81.40;;;;;;5010346;23;20504;-77
2021/07/23 07:32:39;;;;;;;1.50;0.90;;;24.30;81.50;;;;;;5006684;28;20511;-78
2021/07/23 07:35:07;;;;;;;1.50;0.90;;;24.40;80.30;;;;;;5006288;28;20469;-77
2021/07/23 07:37:34;;;;;;;1.53;0.90;;;24.50;81.80;;;;;;5002526;28;20491;-79
2021/07/23 07:40:02;;;;;;;1.50;0.80;;;24.60;80.40;;;;;;5002877;28;20457;-78
2021/07/23 07:42:30;;;;;;;1.50;0.90;;;24.60;80.20;;;;;;5002771;28;20482;-76
2021/07/23 07:44:57;;;;;;;1.50;0.90;;;24.80;80.00;;;;;;5006189;28;20480;-78
2021/07/23 07:47:24;;;;;;;1.50;0.90;;;25.00;79.70;;;;;;5002015;28;20494;-77
2021/07/23 07:49:51;;;;;;;1.50;0.90;;;25.00;78.90;;;;;;4996700;28;20473;-77
2021/07/23 07:52:19;;;;;;;1.50;0.90;;;25.10;79.10;;;;;;5003570;28;20494;-77
2021/07/23 07:54:47;;;;;;;1.50;0.90;;;25.10;77.80;;;;;;5006898;28;20492;-77
2021/07/23 07:57:15;;;;;;;1.50;0.90;;;25.10;78.40;;;;;;4995802;28;21220;-79
2021/07/23 07:59:42;;;;;;;1.50;0.90;;;25.10;78.50;;;;;;5008771;28;20492;-76
2021/07/23 08:02:09;;;;;;;1.50;0.90;;;25.00;77.50;;;;;;5006923;28;20487;-77
2021/07/23 08:04:36;;;;;;;1.50;0.90;;;24.90;79.00;;;;;;5008113;28;20468;-78
2021/07/23 08:07:06;;;;;;;1.50;0.83;;;24.80;79.60;;;;;;4996939;28;21274;-80
2021/07/23 08:09:50;;;;;;;1.50;0.90;;;25.00;79.20;;;;;;4998726;28;20495;-78
2021/07/23 08:12:18;;;;;;;1.50;0.90;;;25.10;77.80;;;;;;5004466;28;20480;-79
2021/07/23 08:14:45;;;;;;;1.50;0.90;;;25.20;77.60;;;;;;5009358;28;20464;-78
2021/07/23 08:17:12;;;;;;;1.50;0.90;;;25.30;78.20;;;;;;4999656;28;20565;-78
2021/07/23 08:19:38;;;;;;;1.50;0.90;;;25.30;77.70;;;;;;5005791;28;20468;-78
2021/07/23 08:22:06;;;;;;;1.50;0.80;;;25.40;76.10;;;;;;5001851;28;21190;-79
2021/07/23 08:24:33;;;;;;;1.50;0.90;;;25.50;76.90;;;;;;5004543;28;20473;-79
2021/07/23 08:27:00;;;;;;;1.50;0.90;;;25.50;77.20;;;;;;4996234;28;20482;-77
2021/07/23 08:29:32;;;;;;;1.50;0.90;;;25.70;76.20;;;;;;5005071;28;20783;-78
2021/07/23 08:32:06;;;;;;;1.50;0.90;;;25.80;77.70;;;;;;5003725;28;20485;-78
2021/07/23 08:34:33;;;;;;;1.50;0.90;;;25.90;76.20;;;;;;5007632;28;20488;-79
2021/07/23 08:36:59;;;;;;;1.50;0.80;;;26.00;75.70;;;;;;5002485;28;20493;-79
2021/07/23 08:39:26;;;;;;;1.50;0.80;;;26.00;75.50;;;;;;5000653;28;20472;-81
2021/07/23 08:41:53;;;;;;;1.50;0.90;;;26.10;74.50;;;;;;5006863;28;20543;-79
2021/07/23 08:44:22;;;;;;;1.50;0.90;;;26.10;75.80;;;;;;5008795;28;20546;-78
2021/07/23 08:46:50;;;;;;;1.50;0.87;;;26.10;74.30;;;;;;5004174;28;20874;-78
2021/07/23 08:49:17;;;;;;;1.47;0.80;;;26.10;74.70;;;;;;5012869;28;20460;-76
2021/07/23 08:51:49;;;;;;;1.50;0.80;;;26.10;76.00;;;;;;4998706;28;20978;-78
2021/07/23 08:54:16;;;;;;;1.50;0.80;;;26.00;76.20;;;;;;5011531;28;20483;-79
2021/07/23 08:56:46;;;;;;;1.50;0.90;;;26.20;75.40;;;;;;4995469;28;20842;-79
2021/07/23 08:59:12;;;;;;;1.50;0.90;;;26.30;75.20;;;;;;5007830;28;20752;-80
2021/07/23 09:01:59;;;;;;;1.50;0.90;;;26.50;74.90;;;;;;5003829;28;20488;-79
2021/07/23 09:04:29;;;;;;;1.50;0.80;;;26.50;74.90;;;;;;5006453;28;20480;-81
2021/07/23 09:07:29;;;;;;;1.70;1.27;;;26.60;74.40;;;;;;4998934;28;20873;-78
2021/07/23 09:09:57;;;;;;;1.50;0.90;;;26.60;74.50;;;;;;5002858;28;20460;-79
2021/07/23 09:12:24;;;;;;;1.50;0.80;;;26.70;74.50;;;;;;5005911;28;20479;-78
2021/07/23 09:14:51;;;;;;;1.50;0.90;;;26.80;73.50;;;;;;5008263;28;20574;-82
2021/07/23 09:17:19;;;;;;;1.50;0.90;;;27.00;74.80;;;;;;5004622;28;20486;-78
2021/07/23 09:20:02;;;;;;;1.50;0.80;;;27.00;73.80;;;;;;5007460;28;20472;-78
2021/07/23 09:22:46;;;;;;;1.50;0.90;;;26.90;73.70;;;;;;4996139;28;20480;-79
2021/07/23 09:25:14;;;;;;;1.50;0.80;;;27.00;73.30;;;;;;5003058;28;20467;-79
2021/07/23 09:27:41;;;;;;;1.50;0.80;;;27.10;73.80;;;;;;5003695;28;21093;-78
2021/07/23 09:30:09;;;;;;;1.47;0.80;;;27.10;74.20;;;;;;4997881;28;20472;-77
2021/07/23 09:32:38;;;;;;;1.50;0.90;;;27.10;73.40;;;;;;5008181;28;20558;-78
2021/07/23 09:35:13;;;;;;;1.50;0.80;;;27.20;73.00;;;;;;4999879;28;20473;-78
2021/07/23 09:37:56;;;;;;;1.50;0.80;;;27.30;74.10;;;;;;5004404;28;20934;-79
2021/07/23 09:40:23;;;;;;;1.47;0.80;;;27.30;72.70;;;;;;5002567;28;20482;-79
2021/07/23 09:42:57;;;;;;;1.50;0.80;;;27.30;73.40;;;;;;5010129;28;20482;-77
2021/07/23 09:45:31;;;;;;;1.50;0.90;;;27.40;73.40;;;;;;4998405;28;20827;-79
2021/07/23 09:48:13;;;;;;;1.50;0.80;;;27.50;73.70;;;;;;5007136;28;20479;-79
2021/07/23 09:50:43;;;;;;;1.50;0.90;;;27.70;73.20;;;;;;5003418;28;20469;-78
2021/07/23 09:53:11;;;;;;;1.50;1.00;;;27.70;72.80;;;;;;5006078;28;20476;-79
2021/07/23 09:55:39;;;;;;;1.47;0.80;;;27.80;71.90;;;;;;5000020;28;20471;-79
2021/07/23 09:58:07;;;;;;;1.50;0.80;;;27.90;71.40;;;;;;5002896;28;21033;-78
2021/07/23 10:00:38;;;;;;;1.50;0.80;;;28.00;71.20;;;;;;5009960;28;20466;-80
2021/07/23 10:03:07;;;;;;;1.50;0.90;;;28.10;71.40;;;;;;5014374;28;20576;-78
2021/07/23 10:05:39;;;;;;;1.50;0.80;;;28.20;69.60;;;;;;5003430;28;20468;-79
2021/07/23 10:08:09;;;;;;;1.50;0.80;;;28.20;69.00;;;;;;5001539;28;20535;-79
2021/07/23 10:10:39;;;;;;;1.50;0.90;;;28.30;68.40;;;;;;5000138;28;20464;-78
2021/07/23 10:13:08;;;;;;;1.50;0.80;;;28.40;69.60;;;;;;5005580;28;20534;-78
2021/07/23 10:15:37;;;;;;;1.47;0.80;;;28.20;69.00;;;;;;4999891;28;20465;-80
2021/07/23 10:18:05;;;;;;;1.50;0.90;;;27.90;70.10;;;;;;5010729;28;20486;-79
2021/07/23 10:20:32;;;;;;;1.43;0.87;;;27.90;68.50;;;;;;5006946;28;20490;-80
2021/07/23 10:23:12;;;;;;;1.50;0.90;;;28.10;68.70;;;;;;5011443;28;20536;-81
2021/07/23 10:25:39;;;;;;;1.50;0.80;;;28.20;67.60;;;;;;5013885;28;20471;-77
2021/07/23 10:28:06;;;;;;;1.47;0.80;;;28.20;68.40;;;;;;5006312;28;20490;-77
2021/07/23 10:30:34;;;;;;;1.50;0.90;;;28.30;68.80;;;;;;5007057;28;20951;-78
2021/07/23 10:33:01;;;;;;;1.47;0.90;;;28.20;71.20;;;;;;5005172;28;20482;-77
2021/07/23 10:35:35;;;;;;;1.50;0.90;;;28.10;70.10;;;;;;5007875;28;20464;-78
2021/07/23 10:38:07;;;;;;;1.50;0.80;;;28.20;68.50;;;;;;5010837;28;20845;-76
2021/07/23 10:40:39;;;;;;;1.50;0.80;;;28.50;68.40;;;;;;5004346;28;20978;-78
2021/07/23 10:43:35;;;;;;;1.50;0.97;;;28.70;68.30;;;;;;5005059;28;20487;-79
2021/07/23 10:46:02;;;;;;;1.90;1.53;;;28.80;68.20;;;;;;4997473;28;20491;-79
2021/07/23 10:48:47;;;;;;;1.47;0.80;;;28.80;70.20;;;;;;5011381;28;20464;-77
2021/07/23 10:51:48;;;;;;;1.47;0.90;;;28.80;69.70;;;;;;4995297;28;20558;-77
2021/07/23 10:54:16;;;;;;;1.50;0.80;;;29.00;70.10;;;;;;5002501;28;20491;-79
2021/07/23 10:57:13;;;;;;;1.50;1.00;;;29.30;68.20;;;;;;4997277;28;20502;-77
2021/07/23 10:59:57;;;;;;;1.50;0.90;;;29.50;68.00;;;;;;4992274;28;20491;-76
2021/07/23 11:02:47;;;;;;;1.50;0.80;;;29.60;67.60;;;;;;4999155;28;20475;-77
2021/07/23 11:05:18;;;;;;;1.47;0.80;;;29.80;68.40;;;;;;4998972;28;20460;-76
2021/07/23 11:07:46;;;;;;;1.47;0.80;;;29.90;66.20;;;;;;4999125;28;20541;-77
2021/07/23 11:10:20;;;;;;;1.47;0.80;;;30.10;66.70;;;;;;4998149;28;20546;-77
2021/07/23 11:12:47;;;;;;;1.43;0.80;;;30.10;67.50;;;;;;5018356;28;20855;-77
2021/07/23 11:15:15;;;;;;;1.50;0.80;;;30.30;66.80;;;;;;4996927;28;20850;-78
2021/07/23 11:17:53;;;;;;;1.50;1.00;;;30.30;66.60;;;;;;5002102;28;20494;-76
2021/07/23 11:20:34;;;;;;;1.50;0.87;;;30.40;66.50;;;;;;5004585;28;20938;-80
2021/07/23 11:23:01;;;;;;;1.47;0.87;;;30.40;65.20;;;;;;5009394;28;20489;-80
2021/07/23 11:25:31;;;;;;;1.50;0.80;;;30.30;66.60;;;;;;4999480;28;20460;-78
2021/07/23 11:28:01;;;;;;;1.50;0.90;;;30.30;65.90;;;;;;5005442;28;20482;-78
2021/07/23 11:30:33;;;;;;;1.47;0.90;;;30.40;64.90;;;;;;4998839;28;20216;-78
2021/07/23 11:33:01;;;;;;;1.47;0.83;;;30.30;66.00;;;;;;5006007;28;20300;-79
2021/07/23 11:35:30;;;;;;;1.47;0.80;;;30.40;66.90;;;;;;5001559;28;21054;-80
2021/07/23 11:37:58;;;;;;;1.50;0.80;;;30.50;66.40;;;;;;5013336;28;20677;-78
2021/07/23 11:40:26;;;;;;;1.47;0.80;;;30.40;63.90;;;;;;4993667;28;20583;-79
2021/07/23 11:43:00;;;;;;;1.47;0.80;;;30.60;65.10;;;;;;5009316;28;20645;-79
2021/07/23 11:45:32;;;;;;;1.47;0.80;;;30.70;65.60;;;;;;5015087;28;20487;-79
2021/07/23 11:48:08;;;;;;;1.40;0.80;;;30.80;63.70;;;;;;5009492;28;20528;-76
2021/07/23 11:50:35;;;;;;;1.43;0.80;;;30.80;65.30;;;;;;4999191;28;20467;-77
2021/07/23 11:53:05;;;;;;;1.50;1.00;;;30.70;65.00;;;;;;5005376;28;20239;-82
2021/07/23 11:55:40;;;;;;;1.43;0.80;;;30.70;64.80;;;;;;4999466;28;20229;-79
2021/07/23 11:58:09;;;;;;;1.50;0.80;;;30.40;65.90;;;;;;5003616;28;20941;-80
2021/07/23 12:00:36;;;;;;;1.43;0.90;;;30.20;64.50;;;;;;4999512;28;20465;-78
2021/07/23 12:03:16;;;;;;;1.50;0.80;;;30.20;65.40;;;;;;4997804;28;20606;-77
2021/07/23 12:05:42;;;;;;;1.47;0.80;;;30.50;65.60;;;;;;4997029;28;20474;-79
2021/07/23 12:08:09;;;;;;;1.40;0.80;;;30.70;63.70;;;;;;5000823;28;20496;-77
2021/07/23 12:10:36;;;;;;;1.50;0.80;;;30.80;63.50;;;;;;5003095;28;20870;-80
2021/07/23 12:13:05;;;;;;;2.63;1.20;;;30.90;64.00;;;;;;5003690;28;20259;-77
2021/07/23 12:15:40;;;;;;;1.43;0.80;;;30.80;64.40;;;;;;4999352;28;20380;-78
2021/07/23 12:18:07;;;;;;;1.43;0.80;;;30.80;64.70;;;;;;5003970;28;20235;-76
2021/07/23 12:20:34;;;;;;;1.47;0.80;;;30.80;64.20;;;;;;5002196;28;20491;-78
2021/07/23 12:23:04;;;;;;;1.43;0.80;;;30.90;64.80;;;;;;4999082;28;20581;-78
2021/07/23 12:25:38;;;;;;;1.50;0.80;;;30.70;62.70;;;;;;5000787;28;20525;-80
2021/07/23 12:28:07;;;;;;;1.47;0.80;;;30.80;62.30;;;;;;4998395;28;20517;-80
2021/07/23 12:30:35;;;;;;;1.47;0.80;;;30.80;63.30;;;;;;5004125;28;20475;-77
2021/07/23 12:33:13;;;;;;;1.47;0.80;;;30.80;64.50;;;;;;5006598;28;20573;-78
2021/07/23 12:35:40;;;;;;;1.43;0.80;;;30.80;64.30;;;;;;4994830;28;20216;-77
2021/07/23 12:38:08;;;;;;;1.50;0.90;;;30.70;63.90;;;;;;5010106;28;21110;-76
2021/07/23 12:40:50;;;;;;;1.50;1.00;;;30.80;62.50;;;;;;5006392;28;20589;-77
2021/07/23 12:43:18;;;;;;;1.43;0.80;;;30.90;63.30;;;;;;5004856;28;20484;-77
2021/07/23 12:45:47;;;;;;;1.50;0.80;;;31.00;62.20;;;;;;4995030;28;20687;-77
2021/07/23 12:48:16;;;;;;;1.43;0.80;;;30.90;63.50;;;;;;4992783;28;20596;-79
2021/07/23 12:50:43;;;;;;;1.47;0.80;;;31.00;63.90;;;;;;4998690;28;20866;-80
2021/07/23 12:53:11;;;;;;;1.47;0.80;;;30.90;62.40;;;;;;5004507;28;20267;-76
2021/07/23 12:55:39;;;;;;;1.50;0.90;;;30.90;63.10;;;;;;5003859;28;20231;-82
2021/07/23 12:58:06;;;;;;;1.43;0.80;;;30.90;62.00;;;;;;5003315;28;20935;-80